createdAt,value
2023-03-29T00:00:16.852Z,55.10
2023-03-29T00:02:48.806Z,55.50
2023-03-29T00:05:25.523Z,55.00
2023-03-29T00:07:54.406Z,55.30
2023-03-29T00:10:24.208Z,55.80
2023-03-29T00:12:52.734Z,55.80
2023-03-29T06:24:16.557Z,74.60
2023-03-29T06:26:45.205Z,73.80
2023-03-29T06:29:12.752Z,73.80
2023-03-29T06:31:40.984Z,74.30
2023-03-29T06:34:08.434Z,74.70
2023-03-29T06:36:35.813Z,75.30
2023-03-29T06:39:04.095Z,74.20
2023-03-29T06:41:31.680Z,74.80
2023-03-29T06:43:59.110Z,74.30
2023-03-29T06:46:27.211Z,73.90
2023-03-29T06:48:54.571Z,73.30
2023-03-29T06:51:23.554Z,73.00
2023-03-29T06:53:50.976Z,73.00
2023-03-29T06:56:18.365Z,72.60
2023-03-29T06:58:47.076Z,72.40
2023-03-29T07:01:14.510Z,72.30
2023-03-29T07:03:44.776Z,72.40
2023-03-29T07:06:15.488Z,72.30
2023-03-29T07:08:47.525Z,72.50
2023-03-29T07:11:17.944Z,72.50
2023-03-29T07:13:46.294Z,72.10
2023-03-29T07:16:14.293Z,72.30
2023-03-29T07:18:44.343Z,72.30
2023-03-29T07:21:13.363Z,72.50
2023-03-29T07:23:41.103Z,72.30
2023-03-29T07:26:09.946Z,72.50
2023-03-29T07:28:39.549Z,72.40
2023-03-29T07:31:11.726Z,72.60
2023-03-29T07:33:39.952Z,71.90
2023-03-29T07:36:08.630Z,71.80
2023-03-29T07:38:37.005Z,71.00
2023-03-29T07:41:08.088Z,70.80
2023-03-29T07:43:35.852Z,70.10
2023-03-29T07:46:07.214Z,70.10
2023-03-29T07:48:37.212Z,69.70
2023-03-29T07:51:06.422Z,69.70
2023-03-29T07:53:33.832Z,69.60
2023-03-29T07:56:01.824Z,70.10
2023-03-29T07:58:29.718Z,70.50
2023-03-29T08:01:00.666Z,70.80
2023-03-29T08:03:28.979Z,70.50
2023-03-29T08:05:57.002Z,70.30
2023-03-29T08:08:24.513Z,69.80
2023-03-29T08:10:52.930Z,69.10
2023-03-29T08:13:20.514Z,68.50
2023-03-29T08:15:48.941Z,68.30
2023-03-29T08:18:16.431Z,69.00
2023-03-29T08:20:44.377Z,68.90
2023-03-29T08:23:11.897Z,69.30
2023-03-29T08:25:39.304Z,69.50
2023-03-29T08:28:06.926Z,69.10
2023-03-29T08:30:34.655Z,68.60
2023-03-29T08:33:02.685Z,68.90
2023-03-29T08:35:30.093Z,68.90
2023-03-29T08:37:57.607Z,68.90
2023-03-29T08:40:30.092Z,69.20
2023-03-29T08:42:59.920Z,69.60
2023-03-29T08:45:57.336Z,69.20
2023-03-29T08:48:44.188Z,69.30
2023-03-29T08:51:36.773Z,69.30
2023-03-29T08:54:25.119Z,69.70
2023-03-29T08:57:00.357Z,68.70
2023-03-29T08:59:34.652Z,68.50
2023-03-29T09:02:05.824Z,68.20
2023-03-29T09:04:39.083Z,68.20
2023-03-29T09:07:11.242Z,68.10
2023-03-29T09:09:38.812Z,67.80
2023-03-29T09:12:48.937Z,68.20
2023-03-29T09:15:31.129Z,67.60
2023-03-29T09:18:19.374Z,67.50
2023-03-29T09:21:33.465Z,67.00
2023-03-29T09:24:40.888Z,67.30
2023-03-29T09:27:27.449Z,67.00
2023-03-29T09:30:32.188Z,66.60
2023-03-29T09:33:24.965Z,66.30
2023-03-29T09:36:17.312Z,66.60
2023-03-29T09:38:51.074Z,66.10
2023-03-29T09:41:49.129Z,66.40
2023-03-29T09:44:38.048Z,66.00
2023-03-29T09:48:06.584Z,66.50
2023-03-29T09:50:47.402Z,66.20
2023-03-29T09:53:21.489Z,66.60
2023-03-29T09:55:52.056Z,65.00
2023-03-29T09:58:24.718Z,65.50
2023-03-29T10:00:53.218Z,64.80
2023-03-29T10:03:29.657Z,65.40
2023-03-29T10:06:02.760Z,64.80
2023-03-29T10:08:46.337Z,64.80
2023-03-29T10:11:33.085Z,64.80
2023-03-29T10:14:37.142Z,65.00
2023-03-29T10:17:24.200Z,65.40
2023-03-29T10:20:04.847Z,64.80
2023-03-29T10:22:37.983Z,64.40
2023-03-29T10:25:17.325Z,64.30
2023-03-29T10:27:47.987Z,64.80
2023-03-29T10:30:26.225Z,63.90
2023-03-29T10:33:00.097Z,63.80
2023-03-29T10:35:41.722Z,63.00
2023-03-29T10:38:18.786Z,62.60
2023-03-29T10:40:53.280Z,62.00
2023-03-29T10:43:35.203Z,60.60
2023-03-29T10:46:33.078Z,58.80
2023-03-29T10:49:18.318Z,58.90
2023-03-29T10:51:49.484Z,58.70
2023-03-29T10:54:22.517Z,58.20
2023-03-29T10:56:57.734Z,58.20
2023-03-29T11:00:01.379Z,58.20
2023-03-29T11:03:06.101Z,57.10
2023-03-29T11:06:26.500Z,56.80
2023-03-29T11:09:23.534Z,53.10
2023-03-29T11:12:34.759Z,52.20
2023-03-29T11:16:04.964Z,51.40
2023-03-29T11:19:07.270Z,52.70
2023-03-29T11:22:19.874Z,51.20
2023-03-29T11:25:42.289Z,50.10
2023-03-29T11:28:45.767Z,50.10
2023-03-29T11:31:38.837Z,50.00
2023-03-29T11:35:08.014Z,49.40
2023-03-29T11:38:19.198Z,47.40
2023-03-29T11:41:19.968Z,47.90
2023-03-29T11:44:02.783Z,46.30
2023-03-29T11:47:20.754Z,45.30
2023-03-29T11:50:00.904Z,45.60
2023-03-29T11:52:43.008Z,46.90
2023-03-29T11:55:26.564Z,47.00
2023-03-29T11:58:22.532Z,48.40
2023-03-29T12:01:00.664Z,47.90
2023-03-29T12:04:24.866Z,46.50
2023-03-29T12:07:23.180Z,46.60
2023-03-29T12:10:16.695Z,45.10
2023-03-29T12:13:19.166Z,44.40
2023-03-29T12:15:59.951Z,44.30
2023-03-29T12:18:43.119Z,45.10
2023-03-29T12:21:21.393Z,44.30
2023-03-29T12:23:50.680Z,45.50
2023-03-29T12:26:46.375Z,43.60
2023-03-29T12:30:02.677Z,43.30
2023-03-29T12:33:22.216Z,43.30
2023-03-29T12:36:49.004Z,43.90
2023-03-29T12:39:20.790Z,43.60
2023-03-29T12:41:53.601Z,43.60
2023-03-29T12:44:24.710Z,42.40
2023-03-29T12:46:58.801Z,43.40
2023-03-29T12:49:38.267Z,43.40
2023-03-29T12:52:36.208Z,43.70
2023-03-29T12:55:48.316Z,42.90
2023-03-29T12:58:40.141Z,43.30
2023-03-29T13:01:32.174Z,43.10
2023-03-29T13:04:17.823Z,42.30
2023-03-29T13:07:03.460Z,43.20
2023-03-29T13:09:55.124Z,43.50
2023-03-29T13:12:46.123Z,43.90
2023-03-29T13:15:19.284Z,43.80
2023-03-29T13:18:48.777Z,44.10
2023-03-29T13:22:10.056Z,43.90
2023-03-29T13:25:06.267Z,42.60
2023-03-29T13:28:05.302Z,42.80
2023-03-29T13:31:01.858Z,42.00
2023-03-29T13:34:31.123Z,42.60
2023-03-29T13:37:54.276Z,41.70
2023-03-29T13:40:40.539Z,42.30
2023-03-29T13:43:22.439Z,41.00
2023-03-29T13:45:58.547Z,40.30
2023-03-29T13:48:35.214Z,40.10
2023-03-29T13:51:18.964Z,39.80
2023-03-29T13:55:13.277Z,39.10
2023-03-29T13:57:56.023Z,39.40
2023-03-29T14:00:37.172Z,39.00
2023-03-29T14:03:13.753Z,39.10
2023-03-29T14:05:56.493Z,38.60
2023-03-29T14:08:37.505Z,37.40
2023-03-29T14:11:08.169Z,37.30
2023-03-29T14:13:35.805Z,37.30
2023-03-29T14:16:10.630Z,37.40
2023-03-29T14:18:42.038Z,37.60
2023-03-29T14:21:14.566Z,39.00
2023-03-29T14:23:47.986Z,39.30
2023-03-29T14:26:30.613Z,38.00
2023-03-29T14:29:02.005Z,37.20
2023-03-29T14:31:37.918Z,36.20
2023-03-29T14:34:16.056Z,36.80
2023-03-29T14:36:49.396Z,37.40
2023-03-29T14:39:23.396Z,37.50
2023-03-29T14:41:57.070Z,37.90
2023-03-29T14:44:31.979Z,38.40
2023-03-29T14:47:01.877Z,38.10
2023-03-29T14:49:29.983Z,38.30
2023-03-29T14:51:58.258Z,38.50
2023-03-29T14:54:33.752Z,38.70
2023-03-29T14:57:07.309Z,38.90
2023-03-29T14:59:56.455Z,39.10
2023-03-29T15:02:32.829Z,38.90
2023-03-29T15:05:25.649Z,39.10
2023-03-29T15:07:56.351Z,38.50
2023-03-29T15:10:24.349Z,38.80
2023-03-29T15:12:52.041Z,39.00
2023-03-29T15:15:20.016Z,39.30
2023-03-29T15:17:52.291Z,39.30
2023-03-29T15:20:31.681Z,38.80
2023-03-29T15:23:09.635Z,39.60
2023-03-29T15:25:49.485Z,40.10
2023-03-29T15:28:55.886Z,39.80
2023-03-29T15:31:42.039Z,38.70
2023-03-29T15:34:25.146Z,38.80
2023-03-29T15:36:54.067Z,38.70
2023-03-29T15:39:21.627Z,39.20
2023-03-29T15:41:52.955Z,38.90
2023-03-29T15:44:43.736Z,39.20
2023-03-29T15:47:12.705Z,39.10
2023-03-29T15:49:40.619Z,39.50
2023-03-29T15:52:08.128Z,39.80
2023-03-29T15:54:37.274Z,39.80
2023-03-29T15:57:12.586Z,40.00
2023-03-29T15:59:40.254Z,40.00
2023-03-29T16:02:12.242Z,39.80
2023-03-29T16:04:39.700Z,39.80
2023-03-29T16:07:17.666Z,39.80
2023-03-29T16:09:46.320Z,40.40
2023-03-29T16:12:16.395Z,41.10
2023-03-29T16:14:43.808Z,40.90
2023-03-29T16:17:11.684Z,40.30
2023-03-29T16:19:39.234Z,40.30
2023-03-29T16:22:07.665Z,40.40
2023-03-29T16:24:36.259Z,41.40
2023-03-29T16:27:04.145Z,42.00
2023-03-29T16:29:32.005Z,42.50
2023-03-29T16:32:00.231Z,42.60
2023-03-29T16:34:27.873Z,43.10
2023-03-29T16:36:55.350Z,43.30
2023-03-29T16:39:22.796Z,43.60
2023-03-29T16:41:50.553Z,43.40
2023-03-29T16:44:23.570Z,43.60
2023-03-29T16:46:54.451Z,43.30
2023-03-29T16:49:22.508Z,43.50
2023-03-29T16:51:49.909Z,43.10
2023-03-29T16:54:18.993Z,43.30
2023-03-29T16:56:47.238Z,43.40
2023-03-29T16:59:15.409Z,43.30
2023-03-29T17:01:43.222Z,43.50
2023-03-29T17:04:11.644Z,43.40
2023-03-29T17:06:39.228Z,43.30
2023-03-29T17:09:07.427Z,43.40
2023-03-29T17:11:35.026Z,43.60
2023-03-29T17:14:02.956Z,43.90
2023-03-29T17:16:30.549Z,43.40
2023-03-29T17:19:01.456Z,43.60
2023-03-29T17:21:29.943Z,43.40
2023-03-29T17:23:57.556Z,43.70
2023-03-29T17:26:25.052Z,43.80
2023-03-29T17:28:52.651Z,44.00
2023-03-29T17:31:20.130Z,44.20
2023-03-29T17:33:47.741Z,44.00
2023-03-29T17:36:15.944Z,44.10
2023-03-29T17:38:43.406Z,44.10
2023-03-29T17:41:11.209Z,44.10
2023-03-29T17:43:38.627Z,44.10
2023-03-29T17:46:06.612Z,44.30
2023-03-29T17:48:34.686Z,44.50
2023-03-29T17:51:02.272Z,44.70
2023-03-29T17:53:29.976Z,45.40
2023-03-29T17:55:57.405Z,46.70
2023-03-29T17:58:24.901Z,47.90
2023-03-29T18:00:52.363Z,49.30
2023-03-29T18:03:20.094Z,50.40
2023-03-29T18:05:48.066Z,51.30
2023-03-29T18:08:16.902Z,50.90
2023-03-29T18:10:44.378Z,51.40
2023-03-29T18:13:14.027Z,52.40
2023-03-29T18:15:44.125Z,52.50
2023-03-29T18:18:11.705Z,52.20
2023-03-29T18:20:39.136Z,52.30
2023-03-29T18:23:06.629Z,53.10
2023-03-29T18:25:34.170Z,52.50
2023-03-29T18:28:01.552Z,53.00
2023-03-29T18:30:28.984Z,53.40
2023-03-29T18:32:56.542Z,53.60
2023-03-29T18:35:24.050Z,54.20
2023-03-29T18:37:52.299Z,54.70
2023-03-29T18:40:24.757Z,54.80
2023-03-29T18:42:52.828Z,55.20
2023-03-29T18:45:21.454Z,55.40
2023-03-29T18:47:50.960Z,55.50
2023-03-29T18:50:18.888Z,55.90
2023-03-29T18:52:46.281Z,56.00
2023-03-29T18:55:13.668Z,56.20
2023-03-29T18:57:41.529Z,57.00
2023-03-29T19:00:13.342Z,57.80
2023-03-29T19:02:42.025Z,58.00
2023-03-29T19:05:10.901Z,58.50
2023-03-29T19:07:38.856Z,59.40
2023-03-29T19:10:08.464Z,59.30
2023-03-29T19:12:36.398Z,59.20
2023-03-29T19:15:04.458Z,59.40
2023-03-29T19:17:32.215Z,59.30
2023-03-29T19:19:59.731Z,59.30
2023-03-29T19:22:27.228Z,59.40
2023-03-29T19:24:54.609Z,59.20
2023-03-29T19:27:22.124Z,59.50
2023-03-29T19:29:49.745Z,60.00
2023-03-29T19:32:17.165Z,60.20
2023-03-29T19:34:44.559Z,60.00
2023-03-29T19:37:12.166Z,60.30
2023-03-29T19:39:41.128Z,60.40
2023-03-29T19:42:08.591Z,60.90
2023-03-29T19:44:38.330Z,60.90
2023-03-29T19:47:06.668Z,61.10
2023-03-29T19:49:36.704Z,61.20
2023-03-29T19:52:05.078Z,61.50
2023-03-29T19:54:32.927Z,61.70
2023-03-29T19:57:00.392Z,61.70
2023-03-29T19:59:28.170Z,61.50
2023-03-29T20:01:57.007Z,61.40
2023-03-29T20:04:25.320Z,61.90
2023-03-29T20:06:52.742Z,62.10
2023-03-29T20:09:20.315Z,62.00
2023-03-29T20:11:47.806Z,62.20
2023-03-29T20:14:15.599Z,62.00
2023-03-29T20:16:44.178Z,62.60
2023-03-29T20:19:14.171Z,62.80
2023-03-29T20:21:41.688Z,62.70
2023-03-29T20:24:09.845Z,62.90
2023-03-29T20:26:37.413Z,63.40
2023-03-29T20:29:04.843Z,63.60
2023-03-29T20:31:32.307Z,63.50
2023-03-29T20:33:59.944Z,63.80
2023-03-29T20:36:30.876Z,64.70
2023-03-29T20:38:59.378Z,64.60
2023-03-29T20:41:27.010Z,65.10
2023-03-29T20:44:00.013Z,65.80
2023-03-29T20:46:33.558Z,65.70
2023-03-29T20:49:09.032Z,66.00
2023-03-29T20:51:38.654Z,66.60
2023-03-29T20:54:07.788Z,66.60
2023-03-29T20:56:42.371Z,66.40
2023-03-29T20:59:10.954Z,66.70
2023-03-29T21:01:42.498Z,66.40
2023-03-29T21:04:11.110Z,67.00
2023-03-29T21:06:41.495Z,66.80
2023-03-29T21:09:08.923Z,66.80
2023-03-29T21:11:36.335Z,66.90
2023-03-29T21:14:04.249Z,67.20
2023-03-29T21:16:34.040Z,67.70
2023-03-29T21:19:01.606Z,67.70
2023-03-29T21:21:30.162Z,68.10
2023-03-29T21:23:57.565Z,68.00
2023-03-29T21:26:24.939Z,68.10
2023-03-29T21:28:52.591Z,68.40
2023-03-29T21:31:20.156Z,68.70
2023-03-29T21:33:47.599Z,69.00
2023-03-29T21:36:15.185Z,69.90
2023-03-29T21:38:42.672Z,70.00
2023-03-29T21:41:12.162Z,70.50
2023-03-29T21:43:40.146Z,70.60
2023-03-29T21:46:08.573Z,70.90
2023-03-29T21:48:36.666Z,71.10
2023-03-29T21:51:06.591Z,71.40
2023-03-29T21:53:34.629Z,71.60
2023-03-29T21:56:02.675Z,71.50
2023-03-29T21:58:30.171Z,71.40
2023-03-29T22:00:57.622Z,71.60
2023-03-29T22:03:25.105Z,72.00
2023-03-29T22:06:03.069Z,72.10
2023-03-29T22:08:31.456Z,72.20
2023-03-29T22:10:58.862Z,72.20
2023-03-29T22:13:28.987Z,72.40
2023-03-29T22:16:03.866Z,72.30
2023-03-29T22:18:44.118Z,72.10
2023-03-29T22:21:22.797Z,71.60
2023-03-29T22:23:56.084Z,71.70
2023-03-29T22:26:29.978Z,71.70
2023-03-29T22:28:59.887Z,71.50
2023-03-29T22:31:29.521Z,71.10
2023-03-29T22:33:58.500Z,71.10
2023-03-29T22:36:31.155Z,71.10
2023-03-29T22:38:59.136Z,71.10
2023-03-29T22:41:28.303Z,71.30
2023-03-29T22:43:59.524Z,71.70
2023-03-29T22:46:27.365Z,72.20
2023-03-29T22:48:55.041Z,72.40
2023-03-29T22:51:22.505Z,72.70
2023-03-29T22:53:50.046Z,72.60
2023-03-29T22:56:18.459Z,72.80
2023-03-29T22:58:46.987Z,72.70
2023-03-29T23:01:14.491Z,72.70
2023-03-29T23:03:42.032Z,72.60
2023-03-29T23:06:09.512Z,72.80
2023-03-29T23:08:37.230Z,72.70
2023-03-29T23:11:05.545Z,72.50
2023-03-29T23:13:33.721Z,72.50
2023-03-29T23:16:02.530Z,72.40
2023-03-29T23:18:35.007Z,72.30
2023-03-29T23:21:05.276Z,72.40
2023-03-29T23:23:33.703Z,72.70
2023-03-29T23:26:02.566Z,72.60
2023-03-29T23:28:30.789Z,72.80
2023-03-29T23:31:11.613Z,72.40
2023-03-29T23:33:43.199Z,72.50
2023-03-29T23:36:16.855Z,72.50
2023-03-29T23:38:46.988Z,72.30
2023-03-29T23:41:17.798Z,71.80
2023-03-29T23:43:47.281Z,72.10
2023-03-29T23:46:19.042Z,70.70
2023-03-29T23:48:50.871Z,70.40
2023-03-29T23:51:23.366Z,69.60
2023-03-29T23:53:51.484Z,69.40
